sensor_id;sensor_type;location;lat;lon;timestamp;temperature;humidity
39401;DHT22;54391;50.000;7.360;2023-06-10T00:00:30;18.40;1.00
39401;DHT22;54391;50.000;7.360;2023-06-10T00:02:58;18.40;1.00
39401;DHT22;54391;50.000;7.360;2023-06-10T00:05:28;18.40;1.00
39401;DHT22;54391;50.000;7.360;2023-06-10T00:07:55;18.40;1.00
39401;DHT22;54391;50.000;7.360;2023-06-10T00:10:23;18.30;1.00
39401;DHT22;54391;50.000;7.360;2023-06-10T00:12:52;18.40;1.00
39401;DHT22;54391;50.000;7.360;2023-06-10T00:15:19;18.50;1.00
39401;DHT22;54391;50.000;7.360;2023-06-10T00:17:48;18.40;1.00
39401;DHT22;54391;50.000;7.360;2023-06-10T00:20:18;18.40;1.00
39401;DHT22;54391;50.000;7.360;2023-06-10T00:22:48;18.30;1.00
39401;DHT22;54391;50.000;7.360;2023-06-10T00:27:42;18.20;1.00
39401;DHT22;54391;50.000;7.360;2023-06-10T00:30:11;18.20;1.00
39401;DHT22;54391;50.000;7.360;2023-06-10T00:32:38;18.20;1.00
39401;DHT22;54391;50.000;7.360;2023-06-10T00:35:07;18.20;1.00
39401;DHT22;54391;50.000;7.360;2023-06-10T00:40:02;18.10;1.00
39401;DHT22;54391;50.000;7.360;2023-06-10T00:44:59;18.10;1.00
39401;DHT22;54391;50.000;7.360;2023-06-10T00:47:27;18.20;1.00
39401;DHT22;54391;50.000;7.360;2023-06-10T00:49:54;18.10;1.00
39401;DHT22;54391;50.000;7.360;2023-06-10T00:52:27;18.10;1.00
39401;DHT22;54391;50.000;7.360;2023-06-10T00:54:55;18.10;1.00
39401;DHT22;54391;50.000;7.360;2023-06-10T00:57:22;18.10;1.00
39401;DHT22;54391;50.000;7.360;2023-06-10T00:59:49;18.00;1.00
39401;DHT22;54391;50.000;7.360;2023-06-10T01:02:17;18.00;1.00
39401;DHT22;54391;50.000;7.360;2023-06-10T01:04:44;18.00;1.00
39401;DHT22;54391;50.000;7.360;2023-06-10T01:07:20;18.00;1.00
39401;DHT22;54391;50.000;7.360;2023-06-10T01:09:59;18.00;1.00
39401;DHT22;54391;50.000;7.360;2023-06-10T01:12:33;17.90;1.10
39401;DHT22;54391;50.000;7.360;2023-06-10T01:17:30;17.90;1.20
39401;DHT22;54391;50.000;7.360;2023-06-10T01:19:57;17.80;1.30
39401;DHT22;54391;50.000;7.360;2023-06-10T01:22:27;17.90;1.50
39401;DHT22;54391;50.000;7.360;2023-06-10T01:24:58;17.90;1.60
39401;DHT22;54391;50.000;7.360;2023-06-10T01:27:32;17.80;1.70
39401;DHT22;54391;50.000;7.360;2023-06-10T01:30:04;17.90;2.40
39401;DHT22;54391;50.000;7.360;2023-06-10T01:32:37;17.80;2.40
39401;DHT22;54391;50.000;7.360;2023-06-10T01:35:08;17.70;2.60
39401;DHT22;54391;50.000;7.360;2023-06-10T01:37:39;17.70;2.70
39401;DHT22;54391;50.000;7.360;2023-06-10T01:40:07;17.60;2.90
39401;DHT22;54391;50.000;7.360;2023-06-10T01:42:35;17.60;3.30
39401;DHT22;54391;50.000;7.360;2023-06-10T01:45:03;17.50;3.60
39401;DHT22;54391;50.000;7.360;2023-06-10T01:47:30;17.50;3.70
39401;DHT22;54391;50.000;7.360;2023-06-10T01:49:59;17.50;4.00
39401;DHT22;54391;50.000;7.360;2023-06-10T01:52:27;17.40;4.10
39401;DHT22;54391;50.000;7.360;2023-06-10T01:54:56;17.40;4.10
39401;DHT22;54391;50.000;7.360;2023-06-10T01:57:23;17.40;4.20
39401;DHT22;54391;50.000;7.360;2023-06-10T02:02:18;17.40;3.90
39401;DHT22;54391;50.000;7.360;2023-06-10T02:04:47;17.50;4.00
39401;DHT22;54391;50.000;7.360;2023-06-10T02:07:15;17.50;3.80
39401;DHT22;54391;50.000;7.360;2023-06-10T02:09:42;17.50;3.90
39401;DHT22;54391;50.000;7.360;2023-06-10T02:12:11;17.50;3.70
39401;DHT22;54391;50.000;7.360;2023-06-10T02:14:38;17.40;4.10
39401;DHT22;54391;50.000;7.360;2023-06-10T02:19:33;17.40;4.10
39401;DHT22;54391;50.000;7.360;2023-06-10T02:22:02;17.40;4.00
39401;DHT22;54391;50.000;7.360;2023-06-10T02:24:29;17.40;4.00
39401;DHT22;54391;50.000;7.360;2023-06-10T02:26:57;17.40;3.80
39401;DHT22;54391;50.000;7.360;2023-06-10T02:29:29;17.40;3.80
39401;DHT22;54391;50.000;7.360;2023-06-10T02:31:56;17.40;3.70
39401;DHT22;54391;50.000;7.360;2023-06-10T02:36:52;17.40;3.50
39401;DHT22;54391;50.000;7.360;2023-06-10T02:39:21;17.40;3.50
39401;DHT22;54391;50.000;7.360;2023-06-10T02:41:49;17.40;3.40
39401;DHT22;54391;50.000;7.360;2023-06-10T02:44:18;17.40;3.30
39401;DHT22;54391;50.000;7.360;2023-06-10T02:46:47;17.40;3.30
39401;DHT22;54391;50.000;7.360;2023-06-10T02:49:15;17.40;3.20
39401;DHT22;54391;50.000;7.360;2023-06-10T02:51:42;17.40;3.30
39401;DHT22;54391;50.000;7.360;2023-06-10T02:56:37;17.30;3.50
39401;DHT22;54391;50.000;7.360;2023-06-10T02:59:12;17.20;3.40
39401;DHT22;54391;50.000;7.360;2023-06-10T03:01:39;17.20;3.60
39401;DHT22;54391;50.000;7.360;2023-06-10T03:04:10;17.30;3.40
39401;DHT22;54391;50.000;7.360;2023-06-10T03:06:40;17.20;3.30
39401;DHT22;54391;50.000;7.360;2023-06-10T03:09:15;17.20;3.50
39401;DHT22;54391;50.000;7.360;2023-06-10T03:14:12;17.20;3.40
39401;DHT22;54391;50.000;7.360;2023-06-10T03:16:39;17.20;3.90
39401;DHT22;54391;50.000;7.360;2023-06-10T03:19:10;17.10;4.10
39401;DHT22;54391;50.000;7.360;2023-06-10T03:21:44;17.00;4.00
39401;DHT22;54391;50.000;7.360;2023-06-10T03:24:14;17.00;4.50
39401;DHT22;54391;50.000;7.360;2023-06-10T03:26:42;16.90;5.20
39401;DHT22;54391;50.000;7.360;2023-06-10T03:29:10;16.90;4.60
39401;DHT22;54391;50.000;7.360;2023-06-10T03:34:07;16.80;4.70
39401;DHT22;54391;50.000;7.360;2023-06-10T03:36:35;16.90;4.70
39401;DHT22;54391;50.000;7.360;2023-06-10T03:39:03;16.90;4.40
39401;DHT22;54391;50.000;7.360;2023-06-10T03:43:59;16.90;4.90
39401;DHT22;54391;50.000;7.360;2023-06-10T03:46:27;16.90;4.90
39401;DHT22;54391;50.000;7.360;2023-06-10T03:53:52;16.90;5.10
39401;DHT22;54391;50.000;7.360;2023-06-10T03:56:21;16.80;4.90
39401;DHT22;54391;50.000;7.360;2023-06-10T03:58:49;16.80;4.90
39401;DHT22;54391;50.000;7.360;2023-06-10T04:03:47;16.90;4.60
39401;DHT22;54391;50.000;7.360;2023-06-10T04:06:14;16.90;4.60
39401;DHT22;54391;50.000;7.360;2023-06-10T04:11:12;16.90;4.50
39401;DHT22;54391;50.000;7.360;2023-06-10T04:13:39;17.00;4.50
39401;DHT22;54391;50.000;7.360;2023-06-10T04:16:06;17.00;4.50
39401;DHT22;54391;50.000;7.360;2023-06-10T04:18:33;17.00;4.40
39401;DHT22;54391;50.000;7.360;2023-06-10T04:21:05;17.00;4.30
39401;DHT22;54391;50.000;7.360;2023-06-10T04:26:00;17.00;4.50
39401;DHT22;54391;50.000;7.360;2023-06-10T04:28:30;17.00;4.70
39401;DHT22;54391;50.000;7.360;2023-06-10T04:30:58;17.10;4.50
39401;DHT22;54391;50.000;7.360;2023-06-10T04:33:28;17.10;4.30
39401;DHT22;54391;50.000;7.360;2023-06-10T04:38:25;17.20;3.90
39401;DHT22;54391;50.000;7.360;2023-06-10T04:40:53;17.20;3.90
39401;DHT22;54391;50.000;7.360;2023-06-10T04:43:22;17.30;3.70
39401;DHT22;54391;50.000;7.360;2023-06-10T04:45:51;17.30;3.80
39401;DHT22;54391;50.000;7.360;2023-06-10T04:50:47;17.50;3.40
39401;DHT22;54391;50.000;7.360;2023-06-10T04:55:46;17.60;2.70
39401;DHT22;54391;50.000;7.360;2023-06-10T04:58:14;17.70;2.40
39401;DHT22;54391;50.000;7.360;2023-06-10T05:00:42;17.80;1.40
39401;DHT22;54391;50.000;7.360;2023-06-10T05:03:11;18.00;1.80
39401;DHT22;54391;50.000;7.360;2023-06-10T05:05:38;18.00;1.20
39401;DHT22;54391;50.000;7.360;2023-06-10T05:08:05;18.10;1.00
39401;DHT22;54391;50.000;7.360;2023-06-10T05:10:32;18.20;1.00
39401;DHT22;54391;50.000;7.360;2023-06-10T05:15:28;18.50;1.00
39401;DHT22;54391;50.000;7.360;2023-06-10T05:17:57;18.60;1.00
39401;DHT22;54391;50.000;7.360;2023-06-10T05:20:26;18.80;1.00
39401;DHT22;54391;50.000;7.360;2023-06-10T05:22:54;19.00;1.00
39401;DHT22;54391;50.000;7.360;2023-06-10T05:27:49;19.30;1.00
39401;DHT22;54391;50.000;7.360;2023-06-10T05:30:16;19.50;1.00
39401;DHT22;54391;50.000;7.360;2023-06-10T05:32:44;19.70;1.00
39401;DHT22;54391;50.000;7.360;2023-06-10T05:35:11;19.90;1.00
39401;DHT22;54391;50.000;7.360;2023-06-10T05:37:40;20.20;1.00
39401;DHT22;54391;50.000;7.360;2023-06-10T05:40:08;20.30;1.00
39401;DHT22;54391;50.000;7.360;2023-06-10T05:42:36;20.60;1.00
39401;DHT22;54391;50.000;7.360;2023-06-10T05:45:05;20.80;1.00
39401;DHT22;54391;50.000;7.360;2023-06-10T05:47:32;21.00;1.00
39401;DHT22;54391;50.000;7.360;2023-06-10T05:49:59;21.20;1.00
39401;DHT22;54391;50.000;7.360;2023-06-10T05:52:27;21.50;1.00
39401;DHT22;54391;50.000;7.360;2023-06-10T05:54:55;21.70;1.00
39401;DHT22;54391;50.000;7.360;2023-06-10T05:57:22;21.80;1.00
39401;DHT22;54391;50.000;7.360;2023-06-10T05:59:50;22.30;1.00
39401;DHT22;54391;50.000;7.360;2023-06-10T06:02:17;22.60;1.00
39401;DHT22;54391;50.000;7.360;2023-06-10T06:04:44;23.00;1.00
39401;DHT22;54391;50.000;7.360;2023-06-10T06:07:11;23.20;1.00
39401;DHT22;54391;50.000;7.360;2023-06-10T06:09:39;23.60;1.00
39401;DHT22;54391;50.000;7.360;2023-06-10T06:12:08;23.70;1.00
39401;DHT22;54391;50.000;7.360;2023-06-10T06:14:38;24.20;1.00
39401;DHT22;54391;50.000;7.360;2023-06-10T06:17:06;24.20;1.00
39401;DHT22;54391;50.000;7.360;2023-06-10T06:19:33;24.70;1.00
39401;DHT22;54391;50.000;7.360;2023-06-10T06:22:01;24.70;1.00
39401;DHT22;54391;50.000;7.360;2023-06-10T06:24:28;24.70;1.00
39401;DHT22;54391;50.000;7.360;2023-06-10T06:26:55;25.00;1.00
39401;DHT22;54391;50.000;7.360;2023-06-10T06:29:24;25.30;1.00
39401;DHT22;54391;50.000;7.360;2023-06-10T06:31:51;25.30;1.00
39401;DHT22;54391;50.000;7.360;2023-06-10T06:34:18;25.70;1.00
39401;DHT22;54391;50.000;7.360;2023-06-10T06:36:46;25.70;1.00
39401;DHT22;54391;50.000;7.360;2023-06-10T06:39:13;26.00;1.00
39401;DHT22;54391;50.000;7.360;2023-06-10T06:41:41;26.10;1.00
39401;DHT22;54391;50.000;7.360;2023-06-10T06:44:09;27.00;1.00
39401;DHT22;54391;50.000;7.360;2023-06-10T06:46:39;27.00;1.00
39401;DHT22;54391;50.000;7.360;2023-06-10T06:49:06;27.10;1.00
39401;DHT22;54391;50.000;7.360;2023-06-10T06:51:33;27.30;1.00
39401;DHT22;54391;50.000;7.360;2023-06-10T06:54:01;27.90;1.00
39401;DHT22;54391;50.000;7.360;2023-06-10T06:56:28;28.10;1.00
39401;DHT22;54391;50.000;7.360;2023-06-10T06:58:55;28.60;1.00
39401;DHT22;54391;50.000;7.360;2023-06-10T07:01:22;28.50;1.00
39401;DHT22;54391;50.000;7.360;2023-06-10T07:03:51;28.70;1.00
39401;DHT22;54391;50.000;7.360;2023-06-10T07:06:18;28.80;1.00
39401;DHT22;54391;50.000;7.360;2023-06-10T07:08:46;29.00;1.00
39401;DHT22;54391;50.000;7.360;2023-06-10T07:11:13;28.90;1.00
39401;DHT22;54391;50.000;7.360;2023-06-10T07:13:41;28.90;1.00
39401;DHT22;54391;50.000;7.360;2023-06-10T07:16:09;29.00;1.00
39401;DHT22;54391;50.000;7.360;2023-06-10T07:18:36;28.70;1.00
39401;DHT22;54391;50.000;7.360;2023-06-10T07:21:05;28.90;1.00
39401;DHT22;54391;50.000;7.360;2023-06-10T07:23:32;29.00;1.00
39401;DHT22;54391;50.000;7.360;2023-06-10T07:25:59;29.20;1.00
39401;DHT22;54391;50.000;7.360;2023-06-10T07:28:27;29.40;1.00
39401;DHT22;54391;50.000;7.360;2023-06-10T07:30:54;29.40;1.00
39401;DHT22;54391;50.000;7.360;2023-06-10T07:33:21;29.20;1.00
39401;DHT22;54391;50.000;7.360;2023-06-10T07:35:48;29.20;1.00
39401;DHT22;54391;50.000;7.360;2023-06-10T07:38:17;29.30;1.00
39401;DHT22;54391;50.000;7.360;2023-06-10T07:40:45;29.40;1.00
39401;DHT22;54391;50.000;7.360;2023-06-10T07:43:12;30.00;1.00
39401;DHT22;54391;50.000;7.360;2023-06-10T07:45:40;29.80;1.00
39401;DHT22;54391;50.000;7.360;2023-06-10T07:48:07;29.10;1.00
39401;DHT22;54391;50.000;7.360;2023-06-10T07:50:34;29.50;1.00
39401;DHT22;54391;50.000;7.360;2023-06-10T07:53:02;29.80;1.00
39401;DHT22;54391;50.000;7.360;2023-06-10T07:55:30;30.00;1.00
39401;DHT22;54391;50.000;7.360;2023-06-10T07:57:58;30.30;1.00
39401;DHT22;54391;50.000;7.360;2023-06-10T08:00:25;29.70;1.00
39401;DHT22;54391;50.000;7.360;2023-06-10T08:02:52;29.50;1.00
39401;DHT22;54391;50.000;7.360;2023-06-10T08:05:19;29.70;1.00
39401;DHT22;54391;50.000;7.360;2023-06-10T08:07:47;30.00;1.00
39401;DHT22;54391;50.000;7.360;2023-06-10T08:10:14;29.70;1.00
39401;DHT22;54391;50.000;7.360;2023-06-10T08:12:43;29.50;1.00
39401;DHT22;54391;50.000;7.360;2023-06-10T08:15:10;29.80;1.00
39401;DHT22;54391;50.000;7.360;2023-06-10T08:17:37;29.40;1.00
39401;DHT22;54391;50.000;7.360;2023-06-10T08:20:06;29.30;1.00
39401;DHT22;54391;50.000;7.360;2023-06-10T08:22:33;29.30;1.00
39401;DHT22;54391;50.000;7.360;2023-06-10T08:25:01;29.40;1.00
39401;DHT22;54391;50.000;7.360;2023-06-10T08:27:28;29.80;1.00
39401;DHT22;54391;50.000;7.360;2023-06-10T08:29:56;29.60;1.00
39401;DHT22;54391;50.000;7.360;2023-06-10T08:32:27;29.20;1.00
39401;DHT22;54391;50.000;7.360;2023-06-10T08:34:55;29.60;1.00
39401;DHT22;54391;50.000;7.360;2023-06-10T08:37:22;29.70;1.00
39401;DHT22;54391;50.000;7.360;2023-06-10T08:39:49;30.40;1.00
39401;DHT22;54391;50.000;7.360;2023-06-10T08:42:22;30.30;1.00
39401;DHT22;54391;50.000;7.360;2023-06-10T08:44:54;30.70;1.00
39401;DHT22;54391;50.000;7.360;2023-06-10T08:47:24;30.50;1.00
39401;DHT22;54391;50.000;7.360;2023-06-10T08:49:53;30.10;1.00
39401;DHT22;54391;50.000;7.360;2023-06-10T08:52:24;30.00;1.00
39401;DHT22;54391;50.000;7.360;2023-06-10T08:54:57;30.30;1.00
39401;DHT22;54391;50.000;7.360;2023-06-10T08:57:27;30.40;1.00
39401;DHT22;54391;50.000;7.360;2023-06-10T08:59:57;30.70;1.00
39401;DHT22;54391;50.000;7.360;2023-06-10T09:02:27;30.20;1.00
39401;DHT22;54391;50.000;7.360;2023-06-10T09:04:56;30.90;1.00
39401;DHT22;54391;50.000;7.360;2023-06-10T09:07:23;31.00;1.00
39401;DHT22;54391;50.000;7.360;2023-06-10T09:09:52;31.40;1.00
39401;DHT22;54391;50.000;7.360;2023-06-10T09:12:20;31.30;1.00
39401;DHT22;54391;50.000;7.360;2023-06-10T09:14:47;31.40;1.00
39401;DHT22;54391;50.000;7.360;2023-06-10T09:17:16;31.10;1.00
39401;DHT22;54391;50.000;7.360;2023-06-10T09:19:44;30.50;1.00
39401;DHT22;54391;50.000;7.360;2023-06-10T09:22:13;30.60;1.00
39401;DHT22;54391;50.000;7.360;2023-06-10T09:24:40;30.40;1.00
39401;DHT22;54391;50.000;7.360;2023-06-10T09:27:08;30.50;1.00
39401;DHT22;54391;50.000;7.360;2023-06-10T09:29:46;31.50;1.00
39401;DHT22;54391;50.000;7.360;2023-06-10T09:32:14;31.50;1.00
39401;DHT22;54391;50.000;7.360;2023-06-10T09:34:43;31.20;1.00
39401;DHT22;54391;50.000;7.360;2023-06-10T09:37:11;31.10;1.00
39401;DHT22;54391;50.000;7.360;2023-06-10T09:39:40;30.60;1.00
39401;DHT22;54391;50.000;7.360;2023-06-10T09:42:16;30.80;1.00
39401;DHT22;54391;50.000;7.360;2023-06-10T09:44:49;30.80;1.00
39401;DHT22;54391;50.000;7.360;2023-06-10T09:47:20;31.00;1.00
39401;DHT22;54391;50.000;7.360;2023-06-10T09:49:49;30.90;1.00
39401;DHT22;54391;50.000;7.360;2023-06-10T09:52:21;31.10;1.00
39401;DHT22;54391;50.000;7.360;2023-06-10T09:54:49;31.10;1.00
39401;DHT22;54391;50.000;7.360;2023-06-10T09:57:17;31.00;1.00
39401;DHT22;54391;50.000;7.360;2023-06-10T09:59:45;30.80;1.00
39401;DHT22;54391;50.000;7.360;2023-06-10T10:02:14;30.80;1.00
39401;DHT22;54391;50.000;7.360;2023-06-10T10:04:42;30.80;1.00
39401;DHT22;54391;50.000;7.360;2023-06-10T10:07:11;30.80;1.00
39401;DHT22;54391;50.000;7.360;2023-06-10T10:09:39;30.90;1.00
39401;DHT22;54391;50.000;7.360;2023-06-10T10:12:10;31.00;1.00
39401;DHT22;54391;50.000;7.360;2023-06-10T10:14:38;31.10;1.00
39401;DHT22;54391;50.000;7.360;2023-06-10T10:17:10;31.00;1.00
39401;DHT22;54391;50.000;7.360;2023-06-10T10:19:43;30.80;1.00
39401;DHT22;54391;50.000;7.360;2023-06-10T10:22:19;30.90;1.00
39401;DHT22;54391;50.000;7.360;2023-06-10T10:24:50;30.90;1.00
39401;DHT22;54391;50.000;7.360;2023-06-10T10:27:20;29.50;1.00
39401;DHT22;54391;50.000;7.360;2023-06-10T10:29:52;29.40;1.00
39401;DHT22;54391;50.000;7.360;2023-06-10T10:32:24;29.40;1.00
39401;DHT22;54391;50.000;7.360;2023-06-10T10:34:57;28.70;1.00
39401;DHT22;54391;50.000;7.360;2023-06-10T10:37:29;29.30;1.00
39401;DHT22;54391;50.000;7.360;2023-06-10T10:39:58;29.60;1.00
39401;DHT22;54391;50.000;7.360;2023-06-10T10:42:27;29.20;1.00
39401;DHT22;54391;50.000;7.360;2023-06-10T10:44:55;29.30;1.00
39401;DHT22;54391;50.000;7.360;2023-06-10T10:47:27;30.00;1.00
39401;DHT22;54391;50.000;7.360;2023-06-10T10:49:56;29.60;1.00
39401;DHT22;54391;50.000;7.360;2023-06-10T10:52:25;29.40;1.00
39401;DHT22;54391;50.000;7.360;2023-06-10T10:54:54;29.10;1.00
39401;DHT22;54391;50.000;7.360;2023-06-10T10:57:23;29.00;1.00
39401;DHT22;54391;50.000;7.360;2023-06-10T10:59:55;29.00;1.00
39401;DHT22;54391;50.000;7.360;2023-06-10T11:02:37;28.70;1.00
39401;DHT22;54391;50.000;7.360;2023-06-10T11:05:06;28.80;1.00
39401;DHT22;54391;50.000;7.360;2023-06-10T11:07:34;29.10;1.00
39401;DHT22;54391;50.000;7.360;2023-06-10T11:10:06;30.10;1.00
39401;DHT22;54391;50.000;7.360;2023-06-10T11:12:52;30.10;1.00
39401;DHT22;54391;50.000;7.360;2023-06-10T11:15:22;29.90;1.00
39401;DHT22;54391;50.000;7.360;2023-06-10T11:18:09;30.30;1.00
39401;DHT22;54391;50.000;7.360;2023-06-10T11:20:57;30.70;1.00
39401;DHT22;54391;50.000;7.360;2023-06-10T11:23:37;31.00;1.00
39401;DHT22;54391;50.000;7.360;2023-06-10T11:26:18;30.00;1.00
39401;DHT22;54391;50.000;7.360;2023-06-10T11:29:04;29.80;1.00
39401;DHT22;54391;50.000;7.360;2023-06-10T11:31:32;29.70;1.00
39401;DHT22;54391;50.000;7.360;2023-06-10T11:34:01;29.90;1.00
39401;DHT22;54391;50.000;7.360;2023-06-10T11:36:32;30.00;1.00
39401;DHT22;54391;50.000;7.360;2023-06-10T11:39:00;30.30;1.00
39401;DHT22;54391;50.000;7.360;2023-06-10T11:41:30;29.90;1.00
39401;DHT22;54391;50.000;7.360;2023-06-10T11:44:02;29.20;1.00
39401;DHT22;54391;50.000;7.360;2023-06-10T11:46:30;29.00;1.00
39401;DHT22;54391;50.000;7.360;2023-06-10T11:48:58;29.20;1.00
39401;DHT22;54391;50.000;7.360;2023-06-10T11:51:26;29.40;1.00
39401;DHT22;54391;50.000;7.360;2023-06-10T11:53:54;29.60;1.00
39401;DHT22;54391;50.000;7.360;2023-06-10T11:56:21;28.90;1.00
39401;DHT22;54391;50.000;7.360;2023-06-10T11:58:54;29.30;1.00
39401;DHT22;54391;50.000;7.360;2023-06-10T12:01:24;29.40;1.00
39401;DHT22;54391;50.000;7.360;2023-06-10T12:03:59;30.00;1.00
39401;DHT22;54391;50.000;7.360;2023-06-10T12:06:37;30.00;1.00
39401;DHT22;54391;50.000;7.360;2023-06-10T12:09:05;30.00;1.00
39401;DHT22;54391;50.000;7.360;2023-06-10T12:11:32;29.10;1.00
39401;DHT22;54391;50.000;7.360;2023-06-10T12:14:01;28.50;1.00
39401;DHT22;54391;50.000;7.360;2023-06-10T12:16:29;28.70;1.00
39401;DHT22;54391;50.000;7.360;2023-06-10T12:19:02;28.80;1.00
39401;DHT22;54391;50.000;7.360;2023-06-10T12:21:30;28.40;1.00
39401;DHT22;54391;50.000;7.360;2023-06-10T12:24:08;28.10;1.00
39401;DHT22;54391;50.000;7.360;2023-06-10T12:26:37;28.10;1.00
39401;DHT22;54391;50.000;7.360;2023-06-10T12:29:21;27.80;1.00
39401;DHT22;54391;50.000;7.360;2023-06-10T12:31:58;27.80;1.00
39401;DHT22;54391;50.000;7.360;2023-06-10T12:34:32;27.70;1.00
39401;DHT22;54391;50.000;7.360;2023-06-10T12:37:00;27.30;1.00
39401;DHT22;54391;50.000;7.360;2023-06-10T12:41:56;26.60;1.00
39401;DHT22;54391;50.000;7.360;2023-06-10T12:44:33;26.50;1.00
39401;DHT22;54391;50.000;7.360;2023-06-10T12:47:06;26.40;1.00
39401;DHT22;54391;50.000;7.360;2023-06-10T12:49:34;26.60;1.00
39401;DHT22;54391;50.000;7.360;2023-06-10T12:52:03;27.10;1.00
39401;DHT22;54391;50.000;7.360;2023-06-10T12:54:30;27.40;1.00
39401;DHT22;54391;50.000;7.360;2023-06-10T12:56:57;27.70;1.00
39401;DHT22;54391;50.000;7.360;2023-06-10T12:59:24;27.80;1.00
39401;DHT22;54391;50.000;7.360;2023-06-10T13:01:55;27.80;1.00
39401;DHT22;54391;50.000;7.360;2023-06-10T13:04:22;27.40;1.00
39401;DHT22;54391;50.000;7.360;2023-06-10T13:06:49;27.30;1.00
39401;DHT22;54391;50.000;7.360;2023-06-10T13:14:12;26.20;1.00
39401;DHT22;54391;50.000;7.360;2023-06-10T13:16:39;25.80;1.00
39401;DHT22;54391;50.000;7.360;2023-06-10T13:19:08;25.70;1.00
39401;DHT22;54391;50.000;7.360;2023-06-10T13:21:35;26.00;1.00
39401;DHT22;54391;50.000;7.360;2023-06-10T13:24:03;26.30;1.00
39401;DHT22;54391;50.000;7.360;2023-06-10T13:26:30;26.60;1.00
39401;DHT22;54391;50.000;7.360;2023-06-10T13:31:25;27.30;1.00
39401;DHT22;54391;50.000;7.360;2023-06-10T13:33:52;27.30;1.00
39401;DHT22;54391;50.000;7.360;2023-06-10T13:36:21;27.40;1.00
39401;DHT22;54391;50.000;7.360;2023-06-10T13:38:48;27.30;1.00
39401;DHT22;54391;50.000;7.360;2023-06-10T13:41:15;27.40;1.00
39401;DHT22;54391;50.000;7.360;2023-06-10T13:43:42;27.50;1.00
39401;DHT22;54391;50.000;7.360;2023-06-10T13:46:10;27.70;1.00
39401;DHT22;54391;50.000;7.360;2023-06-10T13:48:37;27.80;1.00
39401;DHT22;54391;50.000;7.360;2023-06-10T13:51:04;27.80;1.00
39401;DHT22;54391;50.000;7.360;2023-06-10T13:53:33;27.90;1.00
39401;DHT22;54391;50.000;7.360;2023-06-10T13:56:02;28.10;1.00
39401;DHT22;54391;50.000;7.360;2023-06-10T13:58:30;28.20;1.00
39401;DHT22;54391;50.000;7.360;2023-06-10T14:00:57;28.60;1.00
39401;DHT22;54391;50.000;7.360;2023-06-10T14:03:25;28.50;1.00
39401;DHT22;54391;50.000;7.360;2023-06-10T14:05:52;28.70;1.00
39401;DHT22;54391;50.000;7.360;2023-06-10T14:08:19;28.30;1.00
39401;DHT22;54391;50.000;7.360;2023-06-10T14:10:48;27.80;1.00
39401;DHT22;54391;50.000;7.360;2023-06-10T14:13:16;27.40;1.00
39401;DHT22;54391;50.000;7.360;2023-06-10T14:15:44;27.20;1.00
39401;DHT22;54391;50.000;7.360;2023-06-10T14:18:12;26.80;1.00
39401;DHT22;54391;50.000;7.360;2023-06-10T14:20:39;26.60;1.00
39401;DHT22;54391;50.000;7.360;2023-06-10T14:23:06;26.70;1.00
39401;DHT22;54391;50.000;7.360;2023-06-10T14:25:33;27.00;1.00
39401;DHT22;54391;50.000;7.360;2023-06-10T14:28:02;27.30;1.00
39401;DHT22;54391;50.000;7.360;2023-06-10T14:30:30;27.50;1.00
39401;DHT22;54391;50.000;7.360;2023-06-10T14:32:57;27.80;1.00
39401;DHT22;54391;50.000;7.360;2023-06-10T14:35:24;27.90;1.00
39401;DHT22;54391;50.000;7.360;2023-06-10T14:37:51;28.00;1.00
39401;DHT22;54391;50.000;7.360;2023-06-10T14:40:18;28.20;1.00
39401;DHT22;54391;50.000;7.360;2023-06-10T14:42:47;28.20;1.00
39401;DHT22;54391;50.000;7.360;2023-06-10T14:45:15;28.20;1.00
39401;DHT22;54391;50.000;7.360;2023-06-10T14:47:43;28.30;1.00
39401;DHT22;54391;50.000;7.360;2023-06-10T14:50:11;28.30;1.00
39401;DHT22;54391;50.000;7.360;2023-06-10T14:52:38;28.10;1.00
39401;DHT22;54391;50.000;7.360;2023-06-10T14:55:06;28.00;1.00
39401;DHT22;54391;50.000;7.360;2023-06-10T14:57:33;28.00;1.00
39401;DHT22;54391;50.000;7.360;2023-06-10T15:00:01;27.50;1.00
39401;DHT22;54391;50.000;7.360;2023-06-10T15:02:29;27.50;1.00
39401;DHT22;54391;50.000;7.360;2023-06-10T15:04:56;27.30;1.00
39401;DHT22;54391;50.000;7.360;2023-06-10T15:07:24;27.20;1.00
39401;DHT22;54391;50.000;7.360;2023-06-10T15:09:51;27.20;1.00
39401;DHT22;54391;50.000;7.360;2023-06-10T15:14:46;27.30;1.00
39401;DHT22;54391;50.000;7.360;2023-06-10T15:17:13;27.40;1.00
39401;DHT22;54391;50.000;7.360;2023-06-10T15:19:42;27.30;1.00
39401;DHT22;54391;50.000;7.360;2023-06-10T15:22:09;27.30;1.00
39401;DHT22;54391;50.000;7.360;2023-06-10T15:27:05;27.30;1.00
39401;DHT22;54391;50.000;7.360;2023-06-10T15:29:32;27.10;1.00
39401;DHT22;54391;50.000;7.360;2023-06-10T15:32:00;27.00;1.00
39401;DHT22;54391;50.000;7.360;2023-06-10T15:34:27;27.10;1.00
39401;DHT22;54391;50.000;7.360;2023-06-10T15:36:56;27.00;1.00
39401;DHT22;54391;50.000;7.360;2023-06-10T15:39:23;27.00;1.00
39401;DHT22;54391;50.000;7.360;2023-06-10T15:41:52;26.90;1.00
39401;DHT22;54391;50.000;7.360;2023-06-10T15:44:20;26.70;1.00
39401;DHT22;54391;50.000;7.360;2023-06-10T15:49:16;26.60;1.00
39401;DHT22;54391;50.000;7.360;2023-06-10T15:51:43;26.50;1.00
39401;DHT22;54391;50.000;7.360;2023-06-10T15:54:12;26.50;1.00
39401;DHT22;54391;50.000;7.360;2023-06-10T15:59:06;26.70;1.00
39401;DHT22;54391;50.000;7.360;2023-06-10T16:01:34;26.90;1.00
39401;DHT22;54391;50.000;7.360;2023-06-10T16:04:01;27.10;1.00
39401;DHT22;54391;50.000;7.360;2023-06-10T16:06:29;27.00;1.00
39401;DHT22;54391;50.000;7.360;2023-06-10T16:08:56;27.10;1.00
39401;DHT22;54391;50.000;7.360;2023-06-10T16:11:25;27.20;1.00
39401;DHT22;54391;50.000;7.360;2023-06-10T16:13:53;27.30;1.00
39401;DHT22;54391;50.000;7.360;2023-06-10T16:16:20;27.30;1.00
39401;DHT22;54391;50.000;7.360;2023-06-10T16:18:47;27.30;1.00
39401;DHT22;54391;50.000;7.360;2023-06-10T16:21:14;27.10;1.00
39401;DHT22;54391;50.000;7.360;2023-06-10T16:23:42;27.00;1.00
39401;DHT22;54391;50.000;7.360;2023-06-10T16:26:09;27.00;1.00
39401;DHT22;54391;50.000;7.360;2023-06-10T16:28:37;27.00;1.00
39401;DHT22;54391;50.000;7.360;2023-06-10T16:31:05;27.00;1.00
39401;DHT22;54391;50.000;7.360;2023-06-10T16:33:32;27.00;1.00
39401;DHT22;54391;50.000;7.360;2023-06-10T16:38:27;26.60;1.00
39401;DHT22;54391;50.000;7.360;2023-06-10T16:40:55;26.50;1.00
39401;DHT22;54391;50.000;7.360;2023-06-10T16:43:23;26.50;1.00
39401;DHT22;54391;50.000;7.360;2023-06-10T16:45:53;26.40;1.00
39401;DHT22;54391;50.000;7.360;2023-06-10T16:48:22;26.30;1.00
39401;DHT22;54391;50.000;7.360;2023-06-10T16:50:50;26.10;1.00
39401;DHT22;54391;50.000;7.360;2023-06-10T16:53:17;26.00;1.00
39401;DHT22;54391;50.000;7.360;2023-06-10T16:55:44;25.90;1.00
39401;DHT22;54391;50.000;7.360;2023-06-10T16:58:12;25.80;1.00
39401;DHT22;54391;50.000;7.360;2023-06-10T17:00:39;25.80;1.00
39401;DHT22;54391;50.000;7.360;2023-06-10T17:03:11;25.70;1.00
39401;DHT22;54391;50.000;7.360;2023-06-10T17:05:38;25.60;1.00
39401;DHT22;54391;50.000;7.360;2023-06-10T17:08:06;25.60;1.00